sensor_id;sensor_type;location;lat;lon;timestamp;P1;durP1;ratioP1;P2;durP2;ratioP2
68192;SDS011;55012;47.562;18.414;2022-10-22T00:01:29;25.77;;;7.50;;
68192;SDS011;55012;47.562;18.414;2022-10-22T00:03:55;14.50;;;7.13;;
68192;SDS011;55012;47.562;18.414;2022-10-22T00:06:20;14.73;;;7.35;;
68192;SDS011;55012;47.562;18.414;2022-10-22T00:08:46;18.13;;;7.82;;
68192;SDS011;55012;47.562;18.414;2022-10-22T00:11:12;15.15;;;7.25;;
68192;SDS011;55012;47.562;18.414;2022-10-22T00:13:39;16.85;;;7.57;;
68192;SDS011;55012;47.562;18.414;2022-10-22T00:16:05;17.90;;;7.43;;
68192;SDS011;55012;47.562;18.414;2022-10-22T00:18:31;18.10;;;7.28;;
68192;SDS011;55012;47.562;18.414;2022-10-22T00:20:56;15.18;;;7.55;;
68192;SDS011;55012;47.562;18.414;2022-10-22T00:23:22;18.70;;;7.40;;
68192;SDS011;55012;47.562;18.414;2022-10-22T00:25:47;18.55;;;7.72;;
68192;SDS011;55012;47.562;18.414;2022-10-22T00:28:13;14.23;;;7.53;;
68192;SDS011;55012;47.562;18.414;2022-10-22T00:30:39;15.75;;;7.45;;
68192;SDS011;55012;47.562;18.414;2022-10-22T00:33:04;16.63;;;7.40;;
68192;SDS011;55012;47.562;18.414;2022-10-22T00:35:30;21.48;;;7.88;;
68192;SDS011;55012;47.562;18.414;2022-10-22T00:37:55;17.83;;;7.85;;
68192;SDS011;55012;47.562;18.414;2022-10-22T00:40:21;17.90;;;7.70;;
68192;SDS011;55012;47.562;18.414;2022-10-22T00:42:46;16.75;;;7.72;;
68192;SDS011;55012;47.562;18.414;2022-10-22T00:50:32;15.35;;;7.63;;
68192;SDS011;55012;47.562;18.414;2022-10-22T00:53:05;14.43;;;7.72;;
68192;SDS011;55012;47.562;18.414;2022-10-22T00:55:34;14.13;;;7.40;;
68192;SDS011;55012;47.562;18.414;2022-10-22T00:58:00;18.50;;;7.63;;
68192;SDS011;55012;47.562;18.414;2022-10-22T01:00:26;17.13;;;6.97;;
68192;SDS011;55012;47.562;18.414;2022-10-22T01:02:52;18.05;;;7.80;;
68192;SDS011;55012;47.562;18.414;2022-10-22T01:05:19;12.52;;;7.47;;
68192;SDS011;55012;47.562;18.414;2022-10-22T01:07:49;15.43;;;7.28;;
68192;SDS011;55012;47.562;18.414;2022-10-22T01:13:13;15.88;;;7.82;;
68192;SDS011;55012;47.562;18.414;2022-10-22T01:15:58;20.15;;;9.18;;
68192;SDS011;55012;47.562;18.414;2022-10-22T01:21:32;37.13;;;16.50;;
68192;SDS011;55012;47.562;18.414;2022-10-22T01:27:05;39.08;;;16.13;;
68192;SDS011;55012;47.562;18.414;2022-10-22T01:29:36;30.20;;;11.60;;
68192;SDS011;55012;47.562;18.414;2022-10-22T01:32:25;25.52;;;10.48;;
68192;SDS011;55012;47.562;18.414;2022-10-22T01:34:56;22.05;;;9.95;;
68192;SDS011;55012;47.562;18.414;2022-10-22T01:37:27;26.42;;;12.25;;
68192;SDS011;55012;47.562;18.414;2022-10-22T01:39:58;38.40;;;16.80;;
68192;SDS011;55012;47.562;18.414;2022-10-22T01:42:25;36.67;;;16.60;;
68192;SDS011;55012;47.562;18.414;2022-10-22T01:44:51;28.42;;;13.25;;
68192;SDS011;55012;47.562;18.414;2022-10-22T02:00:26;19.70;;;9.90;;
68192;SDS011;55012;47.562;18.414;2022-10-22T02:06:02;20.65;;;9.77;;
68192;SDS011;55012;47.562;18.414;2022-10-22T02:08:24;16.88;;;8.95;;
68192;SDS011;55012;47.562;18.414;2022-10-22T02:10:53;18.20;;;8.18;;
68192;SDS011;55012;47.562;18.414;2022-10-22T02:13:21;20.00;;;8.30;;
68192;SDS011;55012;47.562;18.414;2022-10-22T02:15:52;16.13;;;8.07;;
68192;SDS011;55012;47.562;18.414;2022-10-22T02:18:21;18.98;;;8.55;;
68192;SDS011;55012;47.562;18.414;2022-10-22T02:20:51;16.83;;;8.60;;
68192;SDS011;55012;47.562;18.414;2022-10-22T02:23:19;18.00;;;7.90;;
68192;SDS011;55012;47.562;18.414;2022-10-22T02:25:46;15.68;;;8.05;;
68192;SDS011;55012;47.562;18.414;2022-10-22T02:28:31;13.95;;;7.97;;
68192;SDS011;55012;47.562;18.414;2022-10-22T02:33:32;14.88;;;7.68;;
68192;SDS011;55012;47.562;18.414;2022-10-22T02:36:04;18.75;;;9.48;;
68192;SDS011;55012;47.562;18.414;2022-10-22T02:38:32;23.48;;;10.18;;
68192;SDS011;55012;47.562;18.414;2022-10-22T02:40:59;26.85;;;11.55;;
68192;SDS011;55012;47.562;18.414;2022-10-22T02:43:25;21.67;;;10.63;;
68192;SDS011;55012;47.562;18.414;2022-10-22T02:45:53;22.52;;;10.52;;
68192;SDS011;55012;47.562;18.414;2022-10-22T02:48:18;19.45;;;10.02;;
68192;SDS011;55012;47.562;18.414;2022-10-22T02:50:43;26.90;;;10.38;;
68192;SDS011;55012;47.562;18.414;2022-10-22T02:53:09;23.63;;;10.43;;
68192;SDS011;55012;47.562;18.414;2022-10-22T02:55:34;21.23;;;9.48;;
68192;SDS011;55012;47.562;18.414;2022-10-22T02:58:00;20.23;;;9.77;;
68192;SDS011;55012;47.562;18.414;2022-10-22T03:00:25;19.77;;;9.40;;
68192;SDS011;55012;47.562;18.414;2022-10-22T03:02:51;18.00;;;9.10;;
68192;SDS011;55012;47.562;18.414;2022-10-22T03:05:16;16.15;;;8.68;;
68192;SDS011;55012;47.562;18.414;2022-10-22T03:07:41;16.60;;;9.05;;
68192;SDS011;55012;47.562;18.414;2022-10-22T03:10:07;19.65;;;8.45;;
68192;SDS011;55012;47.562;18.414;2022-10-22T03:12:33;17.55;;;9.25;;
68192;SDS011;55012;47.562;18.414;2022-10-22T03:14:58;16.42;;;9.18;;
68192;SDS011;55012;47.562;18.414;2022-10-22T03:17:24;20.33;;;9.00;;
68192;SDS011;55012;47.562;18.414;2022-10-22T03:19:49;21.80;;;8.90;;
68192;SDS011;55012;47.562;18.414;2022-10-22T03:22:20;20.00;;;8.90;;
68192;SDS011;55012;47.562;18.414;2022-10-22T03:24:48;19.08;;;9.23;;
68192;SDS011;55012;47.562;18.414;2022-10-22T03:27:17;21.08;;;9.27;;
68192;SDS011;55012;47.562;18.414;2022-10-22T03:29:45;20.50;;;9.07;;
68192;SDS011;55012;47.562;18.414;2022-10-22T03:32:11;21.17;;;9.60;;
68192;SDS011;55012;47.562;18.414;2022-10-22T03:34:37;26.95;;;9.32;;
68192;SDS011;55012;47.562;18.414;2022-10-22T03:37:03;22.75;;;10.20;;
68192;SDS011;55012;47.562;18.414;2022-10-22T03:39:28;23.63;;;10.23;;
68192;SDS011;55012;47.562;18.414;2022-10-22T03:41:57;23.50;;;10.18;;
68192;SDS011;55012;47.562;18.414;2022-10-22T03:44:23;18.65;;;9.95;;
68192;SDS011;55012;47.562;18.414;2022-10-22T03:46:48;18.60;;;9.15;;
68192;SDS011;55012;47.562;18.414;2022-10-22T03:49:14;17.67;;;9.05;;
68192;SDS011;55012;47.562;18.414;2022-10-22T03:51:39;17.50;;;8.98;;
68192;SDS011;55012;47.562;18.414;2022-10-22T03:54:05;18.45;;;8.75;;
68192;SDS011;55012;47.562;18.414;2022-10-22T03:56:30;16.80;;;8.63;;
68192;SDS011;55012;47.562;18.414;2022-10-22T03:58:56;19.23;;;8.95;;
68192;SDS011;55012;47.562;18.414;2022-10-22T04:01:23;20.05;;;8.93;;
68192;SDS011;55012;47.562;18.414;2022-10-22T04:03:49;16.85;;;9.15;;
68192;SDS011;55012;47.562;18.414;2022-10-22T04:06:15;18.48;;;9.80;;
68192;SDS011;55012;47.562;18.414;2022-10-22T04:08:42;16.20;;;8.88;;
68192;SDS011;55012;47.562;18.414;2022-10-22T04:11:09;16.75;;;8.88;;
68192;SDS011;55012;47.562;18.414;2022-10-22T04:13:35;16.15;;;9.40;;
68192;SDS011;55012;47.562;18.414;2022-10-22T04:16:11;20.10;;;10.15;;
68192;SDS011;55012;47.562;18.414;2022-10-22T04:18:39;19.83;;;9.65;;
68192;SDS011;55012;47.562;18.414;2022-10-22T04:21:05;17.40;;;9.43;;
68192;SDS011;55012;47.562;18.414;2022-10-22T04:23:32;20.13;;;9.60;;
68192;SDS011;55012;47.562;18.414;2022-10-22T04:25:58;17.77;;;9.77;;
68192;SDS011;55012;47.562;18.414;2022-10-22T04:28:25;18.45;;;10.32;;
68192;SDS011;55012;47.562;18.414;2022-10-22T04:30:50;17.65;;;9.82;;
68192;SDS011;55012;47.562;18.414;2022-10-22T04:33:16;18.27;;;10.25;;
68192;SDS011;55012;47.562;18.414;2022-10-22T04:35:41;23.50;;;10.02;;
68192;SDS011;55012;47.562;18.414;2022-10-22T04:38:07;19.65;;;10.18;;
68192;SDS011;55012;47.562;18.414;2022-10-22T04:40:32;19.50;;;9.82;;
68192;SDS011;55012;47.562;18.414;2022-10-22T04:42:58;20.77;;;10.95;;
68192;SDS011;55012;47.562;18.414;2022-10-22T04:45:23;19.98;;;10.50;;
68192;SDS011;55012;47.562;18.414;2022-10-22T04:47:48;21.02;;;10.43;;
68192;SDS011;55012;47.562;18.414;2022-10-22T04:50:14;19.52;;;10.32;;
68192;SDS011;55012;47.562;18.414;2022-10-22T04:52:39;24.58;;;10.57;;
68192;SDS011;55012;47.562;18.414;2022-10-22T04:55:05;18.45;;;9.65;;
68192;SDS011;55012;47.562;18.414;2022-10-22T04:57:31;22.95;;;10.40;;
68192;SDS011;55012;47.562;18.414;2022-10-22T04:59:56;23.92;;;10.93;;
68192;SDS011;55012;47.562;18.414;2022-10-22T05:02:22;25.92;;;10.57;;
68192;SDS011;55012;47.562;18.414;2022-10-22T05:04:47;18.42;;;10.32;;
68192;SDS011;55012;47.562;18.414;2022-10-22T05:07:13;21.63;;;10.50;;
68192;SDS011;55012;47.562;18.414;2022-10-22T05:09:39;22.88;;;11.00;;
68192;SDS011;55012;47.562;18.414;2022-10-22T05:12:04;21.20;;;10.43;;
68192;SDS011;55012;47.562;18.414;2022-10-22T05:14:30;23.45;;;10.73;;
68192;SDS011;55012;47.562;18.414;2022-10-22T05:16:56;23.70;;;10.82;;
68192;SDS011;55012;47.562;18.414;2022-10-22T05:19:25;21.27;;;11.07;;
68192;SDS011;55012;47.562;18.414;2022-10-22T05:21:53;25.42;;;11.07;;
68192;SDS011;55012;47.562;18.414;2022-10-22T05:24:20;22.83;;;11.60;;
68192;SDS011;55012;47.562;18.414;2022-10-22T05:26:50;25.10;;;10.88;;
68192;SDS011;55012;47.562;18.414;2022-10-22T05:29:17;26.42;;;11.20;;
68192;SDS011;55012;47.562;18.414;2022-10-22T05:31:43;22.90;;;10.38;;
68192;SDS011;55012;47.562;18.414;2022-10-22T05:34:08;21.83;;;10.77;;
68192;SDS011;55012;47.562;18.414;2022-10-22T05:36:34;24.02;;;11.18;;
68192;SDS011;55012;47.562;18.414;2022-10-22T05:39:00;27.98;;;11.00;;
68192;SDS011;55012;47.562;18.414;2022-10-22T05:41:25;20.15;;;10.43;;
68192;SDS011;55012;47.562;18.414;2022-10-22T05:43:53;20.60;;;10.43;;
68192;SDS011;55012;47.562;18.414;2022-10-22T05:46:23;21.75;;;10.75;;
68192;SDS011;55012;47.562;18.414;2022-10-22T05:48:51;20.23;;;10.75;;
68192;SDS011;55012;47.562;18.414;2022-10-22T05:51:21;25.77;;;10.40;;
68192;SDS011;55012;47.562;18.414;2022-10-22T05:53:52;18.05;;;10.20;;
68192;SDS011;55012;47.562;18.414;2022-10-22T05:56:19;21.60;;;10.13;;
68192;SDS011;55012;47.562;18.414;2022-10-22T05:58:45;20.83;;;10.35;;
68192;SDS011;55012;47.562;18.414;2022-10-22T06:03:39;20.73;;;10.27;;
68192;SDS011;55012;47.562;18.414;2022-10-22T06:06:16;22.83;;;10.15;;
68192;SDS011;55012;47.562;18.414;2022-10-22T06:08:45;19.02;;;10.38;;
68192;SDS011;55012;47.562;18.414;2022-10-22T06:11:12;21.73;;;10.55;;
68192;SDS011;55012;47.562;18.414;2022-10-22T06:13:38;20.92;;;10.38;;
68192;SDS011;55012;47.562;18.414;2022-10-22T06:16:04;23.63;;;10.50;;
68192;SDS011;55012;47.562;18.414;2022-10-22T06:18:29;22.02;;;10.40;;
68192;SDS011;55012;47.562;18.414;2022-10-22T06:20:55;22.25;;;10.10;;
68192;SDS011;55012;47.562;18.414;2022-10-22T06:23:20;20.02;;;11.05;;
68192;SDS011;55012;47.562;18.414;2022-10-22T06:25:55;24.33;;;10.40;;
68192;SDS011;55012;47.562;18.414;2022-10-22T06:28:22;22.70;;;10.35;;
68192;SDS011;55012;47.562;18.414;2022-10-22T06:30:47;19.20;;;10.05;;
68192;SDS011;55012;47.562;18.414;2022-10-22T06:33:13;21.23;;;9.95;;
68192;SDS011;55012;47.562;18.414;2022-10-22T06:35:38;21.27;;;10.10;;
68192;SDS011;55012;47.562;18.414;2022-10-22T06:38:03;19.17;;;10.27;;
68192;SDS011;55012;47.562;18.414;2022-10-22T06:40:30;24.88;;;10.52;;
68192;SDS011;55012;47.562;18.414;2022-10-22T06:42:59;26.55;;;10.63;;
68192;SDS011;55012;47.562;18.414;2022-10-22T06:45:25;22.48;;;11.05;;
68192;SDS011;55012;47.562;18.414;2022-10-22T06:47:50;22.23;;;11.45;;
68192;SDS011;55012;47.562;18.414;2022-10-22T06:50:16;22.45;;;11.02;;
68192;SDS011;55012;47.562;18.414;2022-10-22T06:52:41;22.55;;;10.75;;
68192;SDS011;55012;47.562;18.414;2022-10-22T06:55:07;23.63;;;10.55;;
68192;SDS011;55012;47.562;18.414;2022-10-22T06:57:35;21.52;;;10.10;;
68192;SDS011;55012;47.562;18.414;2022-10-22T07:00:02;22.17;;;9.77;;
68192;SDS011;55012;47.562;18.414;2022-10-22T07:02:30;23.75;;;9.95;;
68192;SDS011;55012;47.562;18.414;2022-10-22T07:04:55;22.92;;;10.60;;
68192;SDS011;55012;47.562;18.414;2022-10-22T07:07:21;28.02;;;10.88;;
68192;SDS011;55012;47.562;18.414;2022-10-22T07:09:46;20.30;;;10.07;;
68192;SDS011;55012;47.562;18.414;2022-10-22T07:12:13;20.38;;;9.57;;
68192;SDS011;55012;47.562;18.414;2022-10-22T07:14:39;19.23;;;9.73;;
68192;SDS011;55012;47.562;18.414;2022-10-22T07:17:05;22.33;;;9.75;;
68192;SDS011;55012;47.562;18.414;2022-10-22T07:19:30;22.75;;;9.75;;
68192;SDS011;55012;47.562;18.414;2022-10-22T07:21:55;27.67;;;10.20;;
68192;SDS011;55012;47.562;18.414;2022-10-22T07:24:21;17.02;;;9.60;;
68192;SDS011;55012;47.562;18.414;2022-10-22T07:26:47;24.67;;;9.93;;
68192;SDS011;55012;47.562;18.414;2022-10-22T07:29:12;20.55;;;9.40;;
68192;SDS011;55012;47.562;18.414;2022-10-22T07:31:39;16.83;;;9.65;;
68192;SDS011;55012;47.562;18.414;2022-10-22T07:34:05;18.33;;;8.75;;
68192;SDS011;55012;47.562;18.414;2022-10-22T07:36:31;20.10;;;9.73;;
68192;SDS011;55012;47.562;18.414;2022-10-22T07:38:57;21.48;;;9.40;;
68192;SDS011;55012;47.562;18.414;2022-10-22T07:41:25;17.90;;;9.13;;
68192;SDS011;55012;47.562;18.414;2022-10-22T07:43:52;19.30;;;9.95;;
68192;SDS011;55012;47.562;18.414;2022-10-22T07:46:18;19.13;;;9.40;;
68192;SDS011;55012;47.562;18.414;2022-10-22T07:48:44;25.05;;;11.13;;
68192;SDS011;55012;47.562;18.414;2022-10-22T07:51:10;19.05;;;10.38;;
68192;SDS011;55012;47.562;18.414;2022-10-22T07:53:36;19.77;;;11.45;;
68192;SDS011;55012;47.562;18.414;2022-10-22T07:56:01;22.05;;;10.52;;
68192;SDS011;55012;47.562;18.414;2022-10-22T07:58:27;20.98;;;10.48;;
68192;SDS011;55012;47.562;18.414;2022-10-22T08:00:56;20.27;;;11.15;;
68192;SDS011;55012;47.562;18.414;2022-10-22T08:03:24;20.58;;;10.45;;
68192;SDS011;55012;47.562;18.414;2022-10-22T08:05:51;23.85;;;11.43;;
68192;SDS011;55012;47.562;18.414;2022-10-22T08:08:17;19.83;;;10.70;;
68192;SDS011;55012;47.562;18.414;2022-10-22T08:10:44;20.35;;;10.18;;
68192;SDS011;55012;47.562;18.414;2022-10-22T08:13:10;21.40;;;9.90;;
68192;SDS011;55012;47.562;18.414;2022-10-22T08:15:36;19.20;;;10.45;;
68192;SDS011;55012;47.562;18.414;2022-10-22T08:18:02;19.48;;;10.13;;
68192;SDS011;55012;47.562;18.414;2022-10-22T08:20:27;17.75;;;9.43;;
68192;SDS011;55012;47.562;18.414;2022-10-22T08:22:52;18.25;;;9.35;;
68192;SDS011;55012;47.562;18.414;2022-10-22T08:25:18;16.52;;;9.77;;
68192;SDS011;55012;47.562;18.414;2022-10-22T08:27:44;16.95;;;9.27;;
68192;SDS011;55012;47.562;18.414;2022-10-22T08:30:10;17.70;;;9.13;;
68192;SDS011;55012;47.562;18.414;2022-10-22T08:32:36;15.25;;;8.70;;
68192;SDS011;55012;47.562;18.414;2022-10-22T08:35:01;19.23;;;9.05;;
68192;SDS011;55012;47.562;18.414;2022-10-22T08:37:27;17.42;;;9.20;;
68192;SDS011;55012;47.562;18.414;2022-10-22T08:39:52;16.80;;;9.32;;
68192;SDS011;55012;47.562;18.414;2022-10-22T08:45:24;19.63;;;9.77;;
68192;SDS011;55012;47.562;18.414;2022-10-22T08:50:47;19.95;;;11.77;;
68192;SDS011;55012;47.562;18.414;2022-10-22T08:53:17;21.10;;;11.25;;
68192;SDS011;55012;47.562;18.414;2022-10-22T08:55:45;20.15;;;10.98;;
68192;SDS011;55012;47.562;18.414;2022-10-22T09:06:11;17.33;;;9.80;;
68192;SDS011;55012;47.562;18.414;2022-10-22T09:08:39;19.45;;;9.80;;
68192;SDS011;55012;47.562;18.414;2022-10-22T09:13:35;22.13;;;12.35;;
68192;SDS011;55012;47.562;18.414;2022-10-22T09:16:10;22.33;;;12.70;;
68192;SDS011;55012;47.562;18.414;2022-10-22T09:21:28;22.48;;;12.57;;
68192;SDS011;55012;47.562;18.414;2022-10-22T09:24:09;23.38;;;12.48;;
68192;SDS011;55012;47.562;18.414;2022-10-22T09:26:38;26.27;;;12.10;;
68192;SDS011;55012;47.562;18.414;2022-10-22T09:29:06;32.22;;;15.52;;
68192;SDS011;55012;47.562;18.414;2022-10-22T09:31:37;25.85;;;13.32;;
68192;SDS011;55012;47.562;18.414;2022-10-22T09:34:03;21.90;;;12.18;;
68192;SDS011;55012;47.562;18.414;2022-10-22T09:36:31;24.20;;;12.18;;
68192;SDS011;55012;47.562;18.414;2022-10-22T09:38:57;25.40;;;12.52;;
68192;SDS011;55012;47.562;18.414;2022-10-22T09:41:25;21.45;;;11.85;;
68192;SDS011;55012;47.562;18.414;2022-10-22T09:43:53;23.77;;;11.75;;
68192;SDS011;55012;47.562;18.414;2022-10-22T09:46:21;20.88;;;11.75;;
68192;SDS011;55012;47.562;18.414;2022-10-22T09:48:50;20.60;;;11.23;;
68192;SDS011;55012;47.562;18.414;2022-10-22T09:51:19;20.38;;;11.82;;
68192;SDS011;55012;47.562;18.414;2022-10-22T09:53:54;24.13;;;12.48;;
68192;SDS011;55012;47.562;18.414;2022-10-22T09:56:35;19.90;;;12.43;;
68192;SDS011;55012;47.562;18.414;2022-10-22T09:59:08;21.77;;;12.10;;
68192;SDS011;55012;47.562;18.414;2022-10-22T10:01:39;21.52;;;12.82;;
68192;SDS011;55012;47.562;18.414;2022-10-22T10:04:09;18.85;;;11.38;;
68192;SDS011;55012;47.562;18.414;2022-10-22T10:06:37;27.85;;;11.75;;
68192;SDS011;55012;47.562;18.414;2022-10-22T10:09:14;21.10;;;10.70;;
68192;SDS011;55012;47.562;18.414;2022-10-22T10:11:45;23.88;;;10.27;;
68192;SDS011;55012;47.562;18.414;2022-10-22T10:20:07;24.52;;;11.13;;
68192;SDS011;55012;47.562;18.414;2022-10-22T10:25:31;22.50;;;9.95;;
68192;SDS011;55012;47.562;18.414;2022-10-22T10:28:09;30.00;;;10.27;;
68192;SDS011;55012;47.562;18.414;2022-10-22T10:33:33;19.42;;;10.10;;
68192;SDS011;55012;47.562;18.414;2022-10-22T10:36:30;25.38;;;9.88;;
68192;SDS011;55012;47.562;18.414;2022-10-22T10:39:09;20.17;;;9.52;;
68192;SDS011;55012;47.562;18.414;2022-10-22T10:44:21;24.58;;;10.20;;
68192;SDS011;55012;47.562;18.414;2022-10-22T10:49:30;21.30;;;10.27;;
68192;SDS011;55012;47.562;18.414;2022-10-22T10:54:42;23.30;;;10.18;;
68192;SDS011;55012;47.562;18.414;2022-10-22T11:00:13;17.83;;;9.85;;
68192;SDS011;55012;47.562;18.414;2022-10-22T11:08:00;25.80;;;11.55;;
68192;SDS011;55012;47.562;18.414;2022-10-22T11:10:33;34.88;;;18.33;;
68192;SDS011;55012;47.562;18.414;2022-10-22T11:13:06;27.90;;;13.02;;
68192;SDS011;55012;47.562;18.414;2022-10-22T11:15:38;24.42;;;12.77;;
68192;SDS011;55012;47.562;18.414;2022-10-22T11:18:48;21.58;;;13.02;;
68192;SDS011;55012;47.562;18.414;2022-10-22T11:26:48;24.88;;;12.95;;
68192;SDS011;55012;47.562;18.414;2022-10-22T11:29:22;23.90;;;13.25;;
68192;SDS011;55012;47.562;18.414;2022-10-22T11:31:50;24.63;;;13.18;;
68192;SDS011;55012;47.562;18.414;2022-10-22T11:36:55;23.13;;;13.10;;
68192;SDS011;55012;47.562;18.414;2022-10-22T11:39:41;25.08;;;12.10;;
68192;SDS011;55012;47.562;18.414;2022-10-22T11:42:11;26.50;;;13.65;;
68192;SDS011;55012;47.562;18.414;2022-10-22T11:47:33;31.73;;;15.82;;
68192;SDS011;55012;47.562;18.414;2022-10-22T11:50:19;29.33;;;13.82;;
68192;SDS011;55012;47.562;18.414;2022-10-22T11:52:53;22.23;;;12.32;;
68192;SDS011;55012;47.562;18.414;2022-10-22T11:57:59;34.10;;;12.23;;
68192;SDS011;55012;47.562;18.414;2022-10-22T12:00:34;23.42;;;12.32;;
68192;SDS011;55012;47.562;18.414;2022-10-22T12:03:15;20.88;;;12.23;;
68192;SDS011;55012;47.562;18.414;2022-10-22T12:05:44;21.20;;;11.73;;
68192;SDS011;55012;47.562;18.414;2022-10-22T12:08:17;19.27;;;11.57;;
68192;SDS011;55012;47.562;18.414;2022-10-22T12:16:25;23.05;;;13.25;;
68192;SDS011;55012;47.562;18.414;2022-10-22T12:21:35;25.52;;;14.02;;
68192;SDS011;55012;47.562;18.414;2022-10-22T12:24:03;24.25;;;13.45;;
68192;SDS011;55012;47.562;18.414;2022-10-22T12:26:30;24.45;;;14.38;;
68192;SDS011;55012;47.562;18.414;2022-10-22T12:28:59;25.88;;;14.55;;
68192;SDS011;55012;47.562;18.414;2022-10-22T12:31:26;28.50;;;15.65;;
68192;SDS011;55012;47.562;18.414;2022-10-22T12:33:56;24.98;;;15.00;;
68192;SDS011;55012;47.562;18.414;2022-10-22T12:36:24;24.23;;;14.48;;
68192;SDS011;55012;47.562;18.414;2022-10-22T12:39:03;24.88;;;14.38;;
68192;SDS011;55012;47.562;18.414;2022-10-22T12:41:36;24.98;;;14.18;;
68192;SDS011;55012;47.562;18.414;2022-10-22T12:44:03;23.15;;;13.73;;
68192;SDS011;55012;47.562;18.414;2022-10-22T12:46:30;19.80;;;12.07;;
68192;SDS011;55012;47.562;18.414;2022-10-22T12:48:58;21.77;;;12.52;;
68192;SDS011;55012;47.562;18.414;2022-10-22T12:51:25;26.65;;;14.07;;
68192;SDS011;55012;47.562;18.414;2022-10-22T12:53:52;25.58;;;14.57;;
68192;SDS011;55012;47.562;18.414;2022-10-22T12:56:24;30.25;;;14.90;;
68192;SDS011;55012;47.562;18.414;2022-10-22T12:58:58;25.58;;;14.77;;
68192;SDS011;55012;47.562;18.414;2022-10-22T13:01:26;29.52;;;15.80;;
68192;SDS011;55012;47.562;18.414;2022-10-22T13:06:41;27.50;;;15.65;;
68192;SDS011;55012;47.562;18.414;2022-10-22T13:09:13;23.60;;;14.02;;
68192;SDS011;55012;47.562;18.414;2022-10-22T13:11:49;25.80;;;14.77;;
68192;SDS011;55012;47.562;18.414;2022-10-22T13:17:04;28.80;;;16.02;;
68192;SDS011;55012;47.562;18.414;2022-10-22T13:20:21;32.97;;;15.23;;
68192;SDS011;55012;47.562;18.414;2022-10-22T13:22:40;25.70;;;13.60;;
68192;SDS011;55012;47.562;18.414;2022-10-22T13:27:53;25.17;;;12.93;;
68192;SDS011;55012;47.562;18.414;2022-10-22T13:35:28;24.38;;;13.15;;
68192;SDS011;55012;47.562;18.414;2022-10-22T13:37:57;23.38;;;13.43;;
68192;SDS011;55012;47.562;18.414;2022-10-22T13:40:22;26.63;;;14.27;;
68192;SDS011;55012;47.562;18.414;2022-10-22T13:42:48;25.52;;;13.93;;
68192;SDS011;55012;47.562;18.414;2022-10-22T13:45:14;27.88;;;13.63;;
68192;SDS011;55012;47.562;18.414;2022-10-22T13:47:40;26.23;;;12.80;;
68192;SDS011;55012;47.562;18.414;2022-10-22T13:50:13;26.27;;;14.82;;
68192;SDS011;55012;47.562;18.414;2022-10-22T13:55:16;27.02;;;14.30;;
68192;SDS011;55012;47.562;18.414;2022-10-22T13:57:44;31.20;;;15.00;;
68192;SDS011;55012;47.562;18.414;2022-10-22T14:00:17;24.52;;;12.10;;
68192;SDS011;55012;47.562;18.414;2022-10-22T14:02:45;25.63;;;13.38;;
68192;SDS011;55012;47.562;18.414;2022-10-22T14:05:13;30.27;;;16.05;;
68192;SDS011;55012;47.562;18.414;2022-10-22T14:07:40;33.67;;;17.08;;
68192;SDS011;55012;47.562;18.414;2022-10-22T14:10:13;35.50;;;17.95;;
68192;SDS011;55012;47.562;18.414;2022-10-22T14:15:06;44.50;;;20.10;;
68192;SDS011;55012;47.562;18.414;2022-10-22T14:17:33;40.65;;;19.17;;
68192;SDS011;55012;47.562;18.414;2022-10-22T14:19:58;34.13;;;19.08;;
68192;SDS011;55012;47.562;18.414;2022-10-22T14:22:25;33.58;;;17.20;;
68192;SDS011;55012;47.562;18.414;2022-10-22T14:24:52;29.52;;;16.48;;
68192;SDS011;55012;47.562;18.414;2022-10-22T14:27:18;34.90;;;18.85;;
68192;SDS011;55012;47.562;18.414;2022-10-22T14:29:44;35.47;;;18.63;;
68192;SDS011;55012;47.562;18.414;2022-10-22T14:32:16;32.30;;;17.25;;
68192;SDS011;55012;47.562;18.414;2022-10-22T14:34:46;29.92;;;16.25;;
68192;SDS011;55012;47.562;18.414;2022-10-22T14:37:18;30.60;;;15.68;;
68192;SDS011;55012;47.562;18.414;2022-10-22T14:39:45;31.98;;;16.63;;
68192;SDS011;55012;47.562;18.414;2022-10-22T14:42:16;36.30;;;17.27;;
68192;SDS011;55012;47.562;18.414;2022-10-22T14:44:42;32.53;;;18.05;;
68192;SDS011;55012;47.562;18.414;2022-10-22T14:47:07;36.58;;;19.45;;
68192;SDS011;55012;47.562;18.414;2022-10-22T14:49:33;42.67;;;20.25;;
68192;SDS011;55012;47.562;18.414;2022-10-22T14:51:58;39.75;;;20.70;;
68192;SDS011;55012;47.562;18.414;2022-10-22T14:54:24;36.58;;;19.45;;
68192;SDS011;55012;47.562;18.414;2022-10-22T14:56:49;40.75;;;21.48;;
68192;SDS011;55012;47.562;18.414;2022-10-22T14:59:15;41.25;;;21.13;;
68192;SDS011;55012;47.562;18.414;2022-10-22T15:01:40;47.20;;;23.42;;
68192;SDS011;55012;47.562;18.414;2022-10-22T15:04:07;36.20;;;20.67;;
68192;SDS011;55012;47.562;18.414;2022-10-22T15:06:33;41.15;;;20.33;;
68192;SDS011;55012;47.562;18.414;2022-10-22T15:09:00;42.92;;;20.40;;
68192;SDS011;55012;47.562;18.414;2022-10-22T15:11:25;34.35;;;19.05;;
68192;SDS011;55012;47.562;18.414;2022-10-22T15:13:51;34.78;;;19.15;;
68192;SDS011;55012;47.562;18.414;2022-10-22T15:16:17;39.40;;;20.30;;
68192;SDS011;55012;47.562;18.414;2022-10-22T15:18:42;38.00;;;21.73;;
68192;SDS011;55012;47.562;18.414;2022-10-22T15:21:19;43.70;;;22.63;;
68192;SDS011;55012;47.562;18.414;2022-10-22T15:23:46;41.92;;;22.80;;
68192;SDS011;55012;47.562;18.414;2022-10-22T15:26:12;40.42;;;22.63;;
68192;SDS011;55012;47.562;18.414;2022-10-22T15:28:38;44.15;;;22.90;;
68192;SDS011;55012;47.562;18.414;2022-10-22T15:31:05;48.17;;;22.70;;
68192;SDS011;55012;47.562;18.414;2022-10-22T15:33:31;40.55;;;22.17;;
68192;SDS011;55012;47.562;18.414;2022-10-22T15:35:57;47.70;;;24.60;;
68192;SDS011;55012;47.562;18.414;2022-10-22T15:38:26;45.13;;;24.52;;
68192;SDS011;55012;47.562;18.414;2022-10-22T15:41:02;54.55;;;28.27;;
68192;SDS011;55012;47.562;18.414;2022-10-22T15:43:29;66.03;;;30.73;;
68192;SDS011;55012;47.562;18.414;2022-10-22T15:46:07;71.05;;;35.42;;
68192;SDS011;55012;47.562;18.414;2022-10-22T15:48:42;74.90;;;35.60;;
68192;SDS011;55012;47.562;18.414;2022-10-22T15:51:09;59.00;;;27.77;;
68192;SDS011;55012;47.562;18.414;2022-10-22T15:53:39;45.95;;;24.13;;
68192;SDS011;55012;47.562;18.414;2022-10-22T15:56:05;41.65;;;21.80;;
68192;SDS011;55012;47.562;18.414;2022-10-22T15:58:31;39.67;;;21.80;;
68192;SDS011;55012;47.562;18.414;2022-10-22T16:01:03;41.80;;;21.85;;
68192;SDS011;55012;47.562;18.414;2022-10-22T16:03:34;41.10;;;22.10;;
68192;SDS011;55012;47.562;18.414;2022-10-22T16:05:59;40.80;;;21.92;;
68192;SDS011;55012;47.562;18.414;2022-10-22T16:08:25;41.67;;;20.75;;
68192;SDS011;55012;47.562;18.414;2022-10-22T16:10:51;42.80;;;21.10;;
68192;SDS011;55012;47.562;18.414;2022-10-22T16:13:17;42.72;;;20.35;;
68192;SDS011;55012;47.562;18.414;2022-10-22T16:15:45;48.80;;;23.08;;
68192;SDS011;55012;47.562;18.414;2022-10-22T16:18:10;63.38;;;26.48;;
68192;SDS011;55012;47.562;18.414;2022-10-22T16:20:39;55.03;;;23.92;;
68192;SDS011;55012;47.562;18.414;2022-10-22T16:23:05;58.33;;;25.95;;